createdAt,value
2022-09-10T00:02:35.000Z,4.25
2022-09-10T00:07:34.000Z,4.17
2022-09-10T00:12:35.000Z,4.08
2022-09-10T00:22:35.000Z,3.99
2022-09-10T00:27:35.000Z,3.89
2022-09-10T00:32:34.000Z,3.81
2022-09-10T00:37:35.000Z,3.72
2022-09-10T00:42:34.000Z,3.64
2022-09-10T00:47:34.000Z,3.63
2022-09-10T00:52:35.000Z,3.62
2022-09-10T00:57:34.000Z,3.63
2022-09-10T01:07:35.000Z,3.56
2022-09-10T01:12:35.000Z,3.38
2022-09-10T01:17:35.000Z,3.41
2022-09-10T01:22:35.000Z,3.26
2022-09-10T01:27:34.000Z,3.23
2022-09-10T01:32:35.000Z,3.33
2022-09-10T01:37:34.000Z,3.31
2022-09-10T01:42:35.000Z,3.27
2022-09-10T01:47:34.000Z,3.21
2022-09-10T01:52:35.000Z,3.26
2022-09-10T01:57:34.000Z,3.24
2022-09-10T02:02:34.000Z,3.24
2022-09-10T02:07:35.000Z,3.25
2022-09-10T02:12:34.000Z,3.2
2022-09-10T02:17:34.000Z,3.2
2022-09-10T02:27:34.000Z,3.19
2022-09-10T02:32:34.000Z,3.07
2022-09-10T02:37:34.000Z,3.07
2022-09-10T02:42:34.000Z,3.14
2022-09-10T02:47:34.000Z,3.12
2022-09-10T02:52:35.000Z,3.05
2022-09-10T02:57:35.000Z,3.05
2022-09-10T03:02:34.000Z,3.1
2022-09-10T03:07:34.000Z,3.07
2022-09-10T03:12:35.000Z,3.07
2022-09-10T03:17:35.000Z,3.06
2022-09-10T03:22:35.000Z,2.95
2022-09-10T03:27:35.000Z,3.02
2022-09-10T03:32:34.000Z,3.17
2022-09-10T03:42:34.000Z,3.22
2022-09-10T03:47:34.000Z,3.24
2022-09-10T03:52:35.000Z,3.47
2022-09-10T03:57:34.000Z,3.67
2022-09-10T04:02:35.000Z,3.86
2022-09-10T04:07:35.000Z,3.99
2022-09-10T04:12:34.000Z,3.99
2022-09-10T04:17:35.000Z,4.14
2022-09-10T04:22:35.000Z,4.48
2022-09-10T04:27:35.000Z,4.84
2022-09-10T04:32:35.000Z,5.19
2022-09-10T04:37:35.000Z,5.57
2022-09-10T04:42:34.000Z,5.98
2022-09-10T04:47:35.000Z,6.5
2022-09-10T04:52:35.000Z,7.35
2022-09-10T04:57:34.000Z,7.84
2022-09-10T05:02:34.000Z,8.1
2022-09-10T05:07:34.000Z,8.33
2022-09-10T05:12:34.000Z,8.64
2022-09-10T05:17:35.000Z,8.88
2022-09-10T05:22:41.000Z,9.15
2022-09-10T05:27:35.000Z,9.15
2022-09-10T05:32:35.000Z,9.85
2022-09-10T05:37:35.000Z,12.39
2022-09-10T05:42:34.000Z,16.24
2022-09-10T05:47:35.000Z,18.92
2022-09-10T05:52:35.000Z,20.3
2022-09-10T05:57:34.000Z,21.59
2022-09-10T06:02:34.000Z,24.56
2022-09-10T06:07:35.000Z,26.64
2022-09-10T06:12:34.000Z,27.96
2022-09-10T06:17:35.000Z,28.87
2022-09-10T06:22:34.000Z,28.39
2022-09-10T06:27:34.000Z,26.69
2022-09-10T06:32:35.000Z,26.3
2022-09-10T06:37:35.000Z,27.98
2022-09-10T06:42:34.000Z,27.98
2022-09-10T06:48:48.000Z,31.11
2022-09-10T06:57:35.000Z,32.19
2022-09-10T07:02:35.000Z,30.83
2022-09-10T07:07:34.000Z,31.77
2022-09-10T07:12:35.000Z,30.38
2022-09-10T07:17:41.000Z,29.78
2022-09-10T07:22:34.000Z,31.19
2022-09-10T07:27:34.000Z,31.64
2022-09-10T07:32:34.000Z,33.27
2022-09-10T07:37:34.000Z,34.27
2022-09-10T07:42:34.000Z,32.77
2022-09-10T07:47:35.000Z,32.63
2022-09-10T07:52:34.000Z,32.17
2022-09-10T07:57:35.000Z,32.17
2022-09-10T08:02:35.000Z,35.04
2022-09-10T08:07:35.000Z,36.65
2022-09-10T08:12:35.000Z,37.24
2022-09-10T08:17:35.000Z,35.14
2022-09-10T08:22:34.000Z,33.2
2022-09-10T08:27:34.000Z,32.58
2022-09-10T08:32:35.000Z,31.07
2022-09-10T08:37:34.000Z,30.75
2022-09-10T08:42:35.000Z,31.74
2022-09-10T08:47:35.000Z,32.76
2022-09-10T08:52:35.000Z,33.57
2022-09-10T08:57:35.000Z,32.2
2022-09-10T09:02:58.000Z,27.36
2022-09-10T09:07:34.000Z,23.13
2022-09-10T09:12:35.000Z,23.13
2022-09-10T09:17:35.000Z,20.28
2022-09-10T09:22:35.000Z,19.2
2022-09-10T09:27:35.000Z,18.04
2022-09-10T09:32:34.000Z,17.95
2022-09-10T09:37:35.000Z,18.18
2022-09-10T09:42:34.000Z,18.03
2022-09-10T09:47:34.000Z,17.86
2022-09-10T09:52:35.000Z,18.03
2022-09-10T09:57:34.000Z,18.27
2022-09-10T10:02:36.000Z,18.34
2022-09-10T10:07:35.000Z,18.16
2022-09-10T10:12:35.000Z,18.13
2022-09-10T10:17:34.000Z,17.89
2022-09-10T10:22:35.000Z,17.63
2022-09-10T10:27:35.000Z,17.63
2022-09-10T10:37:34.000Z,17.71
2022-09-10T10:42:34.000Z,17.59
2022-09-10T10:47:35.000Z,17.17
2022-09-10T10:52:34.000Z,17.06
2022-09-10T10:57:35.000Z,17.08
2022-09-10T11:02:35.000Z,16.97
2022-09-10T11:07:35.000Z,16.97
2022-09-10T11:12:34.000Z,17.05
2022-09-10T11:17:35.000Z,17.13
2022-09-10T11:22:34.000Z,17.15
2022-09-10T11:27:35.000Z,16.99
2022-09-10T11:32:35.000Z,16.77
2022-09-10T11:37:34.000Z,16.77
2022-09-10T11:42:34.000Z,16.79
2022-09-10T11:47:35.000Z,16.83
2022-09-10T11:52:35.000Z,16.75
2022-09-10T11:57:35.000Z,16.66
2022-09-10T12:02:35.000Z,16.74
2022-09-10T12:07:35.000Z,16.63
2022-09-10T12:12:34.000Z,16.62
2022-09-10T12:17:35.000Z,16.58
2022-09-10T12:22:35.000Z,16.42
2022-09-10T12:27:35.000Z,16.55
2022-09-10T12:32:34.000Z,16.52
2022-09-10T12:37:34.000Z,16.39
2022-09-10T12:42:34.000Z,16.36
2022-09-10T12:47:35.000Z,16.39
2022-09-10T12:52:35.000Z,16.39
2022-09-10T12:57:35.000Z,16.21
2022-09-10T13:02:34.000Z,16.16
2022-09-10T13:07:34.000Z,16.05
2022-09-10T13:12:35.000Z,16.03
2022-09-10T13:17:34.000Z,15.91
2022-09-10T13:22:34.000Z,15.92
2022-09-10T13:27:35.000Z,15.88
2022-09-10T13:32:35.000Z,15.95
2022-09-10T13:37:35.000Z,16.01
2022-09-10T13:42:35.000Z,15.94
2022-09-10T13:47:34.000Z,15.9
2022-09-10T13:52:35.000Z,15.92
2022-09-10T13:57:35.000Z,15.75
2022-09-10T14:02:35.000Z,15.66
2022-09-10T14:07:35.000Z,15.66
2022-09-10T14:17:34.000Z,15.54
2022-09-10T14:22:35.000Z,15.51
2022-09-10T14:27:35.000Z,15.46
2022-09-10T14:32:35.000Z,15.46
2022-09-10T14:37:35.000Z,15.39
2022-09-10T14:42:35.000Z,15.34
2022-09-10T14:47:35.000Z,15.31
2022-09-10T14:52:35.000Z,15.2
2022-09-10T14:57:34.000Z,15.1
2022-09-10T15:02:35.000Z,14.95
2022-09-10T15:07:34.000Z,14.95
2022-09-10T15:12:35.000Z,14.81
2022-09-10T15:17:34.000Z,14.69
2022-09-10T15:22:34.000Z,14.46
2022-09-10T15:27:34.000Z,14.46
2022-09-10T15:37:35.000Z,13.49
2022-09-10T15:42:34.000Z,13.33
2022-09-10T15:52:35.000Z,13.14
2022-09-10T15:57:34.000Z,12.98
2022-09-10T16:02:35.000Z,12.8
2022-09-10T16:07:35.000Z,12.63
2022-09-10T16:12:35.000Z,12.41
2022-09-10T16:17:35.000Z,12.11
2022-09-10T16:22:35.000Z,12.01
2022-09-10T16:27:34.000Z,11.88
2022-09-10T16:32:35.000Z,11.76
2022-09-10T16:37:35.000Z,11.55
2022-09-10T16:42:34.000Z,11.49
2022-09-10T16:47:35.000Z,11.3
2022-09-10T16:52:35.000Z,11.13
2022-09-10T16:57:35.000Z,11.13
2022-09-10T17:02:35.000Z,11.02
2022-09-10T17:07:35.000Z,10.76
2022-09-10T17:12:34.000Z,10.59
2022-09-10T17:17:35.000Z,10.53
2022-09-10T17:22:34.000Z,10.34
2022-09-10T17:27:35.000Z,10.19
2022-09-10T17:32:35.000Z,10.15
2022-09-10T17:37:35.000Z,10.07
2022-09-10T17:42:35.000Z,10.05
2022-09-10T17:47:34.000Z,9.91
2022-09-10T17:52:34.000Z,9.89
2022-09-10T17:57:34.000Z,9.83
2022-09-10T18:02:34.000Z,9.67
2022-09-10T18:07:34.000Z,9.6
2022-09-10T18:12:35.000Z,9.6
2022-09-10T18:17:35.000Z,9.52
2022-09-10T18:22:35.000Z,9.48
2022-09-10T18:27:35.000Z,9.26
2022-09-10T18:32:36.000Z,9.24
2022-09-10T18:42:35.000Z,9.09
2022-09-10T18:47:54.000Z,9.03
2022-09-10T18:52:34.000Z,8.92
2022-09-10T18:57:34.000Z,8.7
2022-09-10T19:02:34.000Z,8.53
2022-09-10T19:07:35.000Z,8.25
2022-09-10T19:12:35.000Z,8.01
2022-09-10T19:17:34.000Z,7.74
2022-09-10T19:22:35.000Z,7.74
2022-09-10T19:27:35.000Z,7.72
2022-09-10T19:32:34.000Z,7.83
2022-09-10T19:37:35.000Z,7.87
2022-09-10T19:42:35.000Z,7.78
2022-09-10T19:47:34.000Z,7.79
2022-09-10T19:52:35.000Z,7.81
2022-09-10T19:57:35.000Z,7.62
2022-09-10T20:02:35.000Z,7.57
2022-09-10T20:07:35.000Z,7.46
2022-09-10T20:12:35.000Z,7.5
2022-09-10T20:17:35.000Z,7.46
2022-09-10T20:22:34.000Z,7.32
2022-09-10T20:27:34.000Z,7.28
2022-09-10T20:32:35.000Z,7.29
2022-09-10T20:37:34.000Z,7.29
2022-09-10T20:42:34.000Z,7.32
2022-09-10T20:47:34.000Z,7.2
2022-09-10T20:52:34.000Z,7.08
2022-09-10T20:57:35.000Z,7.08
2022-09-10T21:02:35.000Z,6.94
2022-09-10T21:07:34.000Z,7.02
2022-09-10T21:12:34.000Z,6.9
2022-09-10T21:17:35.000Z,6.84
2022-09-10T21:22:34.000Z,6.58
2022-09-10T21:27:35.000Z,6.53
2022-09-10T21:32:35.000Z,6.44
2022-09-10T21:37:34.000Z,6.44
2022-09-10T21:42:35.000Z,6.43
2022-09-10T21:47:35.000Z,6.46
2022-09-10T21:52:35.000Z,6.46
2022-09-10T21:57:34.000Z,6.46
2022-09-10T22:02:35.000Z,6.37
2022-09-10T22:07:34.000Z,6.38
2022-09-10T22:12:35.000Z,6.21
2022-09-10T22:17:34.000Z,5.93
2022-09-10T22:22:35.000Z,5.89
2022-09-10T22:27:34.000Z,5.95
2022-09-10T22:32:35.000Z,5.89
2022-09-10T22:37:35.000Z,5.65
2022-09-10T22:42:35.000Z,5.46
2022-09-10T22:47:35.000Z,5.59
2022-09-10T22:52:35.000Z,5.76
2022-09-10T22:57:34.000Z,5.76
2022-09-10T23:02:34.000Z,5.78
2022-09-10T23:07:34.000Z,5.68
2022-09-10T23:12:35.000Z,5.68
2022-09-10T23:17:34.000Z,5.55
2022-09-10T23:22:34.000Z,5.21
2022-09-10T23:27:34.000Z,5.1
2022-09-10T23:32:35.000Z,5.16
2022-09-10T23:37:35.000Z,5.02
2022-09-10T23:42:34.000Z,5.09
2022-09-10T23:47:35.000Z,4.91
2022-09-10T23:52:35.000Z,4.69
2022-09-10T23:57:35.000Z,4.83
